Time;durP1;ratioP1;P1;durP2;ratioP2;P2;SDS_P1;SDS_P2;PMS_P1;PMS_P2;Temp;Humidity;BMP_temperature;BMP_pressure;BME280_temperature;BME280_humidity;BME280_pressure;Samples;Min_cycle;Max_cycle;Signal;HPM_P1;HPM_P2
2022/07/15 00:00:23;;;;;;;5.05;3.30;;;;;;;22.67;100.00;96513.75;5079001;28;20080;-51
2022/07/15 00:02:51;;;;;;;5.68;3.65;;;;;;;22.72;100.00;96520.13;5080741;28;20784;-47
2022/07/15 00:05:22;;;;;;;6.28;3.67;;;;;;;22.70;100.00;96522.19;5086263;28;20686;-47
2022/07/15 00:08:00;;;;;;;7.43;3.85;;;;;;;22.88;100.00;96521.44;5081984;28;20048;-49
2022/07/15 00:10:29;;;;;;;5.75;3.70;;;;;;;22.95;100.00;96522.22;5076827;28;20072;-50
2022/07/15 00:12:59;;;;;;;6.65;3.42;;;;;;;22.84;100.00;96520.22;5083048;28;20083;-45
2022/07/15 00:15:28;;;;;;;;;;;;;;;22.79;100.00;96517.38;5079448;28;20078;-45
2022/07/15 00:18:01;;;;;;;5.63;3.42;;;;;;;23.03;100.00;96512.22;5084888;28;19963;-46
2022/07/15 00:20:33;;;;;;;5.63;3.50;;;;;;;23.03;100.00;96509.53;5083909;28;20072;-48
2022/07/15 00:23:14;;;;;;;5.20;3.50;;;;;;;23.04;100.00;96511.19;5081526;28;20044;-50
2022/07/15 00:25:43;;;;;;;5.30;3.45;;;;;;;23.06;100.00;96504.53;5079279;28;20075;-44
2022/07/15 00:28:12;;;;;;;6.38;3.72;;;;;;;22.90;100.00;96513.94;5083686;28;20063;-50
2022/07/15 00:30:54;;;;;;;7.72;3.97;;;;;;;22.70;100.00;96534.81;5080175;28;20052;-44
2022/07/15 00:33:23;;;;;;;6.03;3.80;;;;;;;22.57;100.00;96530.34;5083275;28;20067;-46
2022/07/15 00:35:53;;;;;;;7.72;3.55;;;;;;;22.57;100.00;96534.91;5074404;28;20506;-47
2022/07/15 00:38:21;;;;;;;6.90;3.80;;;;;;;22.56;100.00;96527.91;5086397;28;20067;-48
2022/07/15 00:40:51;;;;;;;10.30;3.50;;;;;;;22.51;100.00;96523.19;5084133;28;20064;-51
2022/07/15 00:43:19;;;;;;;7.22;3.70;;;;;;;22.47;100.00;96530.00;5080705;28;20082;-48
2022/07/15 00:45:48;;;;;;;6.53;3.33;;;;;;;22.27;100.00;96525.63;5091071;28;20071;-47
2022/07/15 00:48:16;;;;;;;6.75;3.47;;;;;;;22.21;100.00;96536.41;5087104;28;20071;-51
2022/07/15 00:50:48;;;;;;;6.78;3.33;;;;;;;22.24;100.00;96541.34;5082623;28;20087;-47
2022/07/15 00:53:19;;;;;;;5.50;3.55;;;;;;;22.33;100.00;96529.28;5083852;28;20080;-53
2022/07/15 00:55:48;;;;;;;7.50;3.60;;;;;;;22.22;100.00;96520.06;5077160;28;20494;-45
2022/07/15 00:58:18;;;;;;;4.65;3.50;;;;;;;22.13;100.00;96518.66;5081708;28;20078;-49
2022/07/15 01:00:49;;;;;;;6.20;3.33;;;;;;;22.09;100.00;96517.41;5086656;28;20074;-50
2022/07/15 01:03:18;;;;;;;4.55;3.22;;;;;;;21.93;100.00;96516.06;5088062;28;20063;-45
2022/07/15 01:05:48;;;;;;;5.80;3.47;;;;;;;21.99;100.00;96527.84;5085650;28;20442;-51
2022/07/15 01:08:18;;;;;;;5.65;3.30;;;;;;;21.72;100.00;96535.19;5083754;28;20502;-45
2022/07/15 01:10:49;;;;;;;5.22;3.88;;;;;;;21.83;100.00;96541.75;5080073;28;20082;-46
2022/07/15 01:13:18;;;;;;;8.43;3.85;;;;;;;21.73;100.00;96548.38;5089493;28;20080;-45
2022/07/15 01:15:47;;;;;;;6.28;3.83;;;;;;;21.65;100.00;96545.13;5076307;28;20071;-46
2022/07/15 01:18:15;;;;;;;7.25;3.38;;;;;;;21.63;100.00;96537.28;5086191;28;20074;-45
2022/07/15 01:20:47;;;;;;;8.15;3.80;;;;;;;21.48;100.00;96542.09;5083804;28;20277;-50
2022/07/15 01:23:16;;;;;;;6.10;3.75;;;;;;;21.45;100.00;96537.97;5087568;28;20072;-44
2022/07/15 01:25:45;;;;;;;5.63;3.88;;;;;;;21.46;100.00;96541.47;5085724;28;20076;-45
2022/07/15 01:28:14;;;;;;;4.97;3.60;;;;;;;21.50;100.00;96550.72;5087150;28;20431;-46
2022/07/15 01:30:42;;;;;;;6.05;3.60;;;;;;;21.48;100.00;96536.72;5078426;28;20618;-47
2022/07/15 01:33:11;;;;;;;6.30;3.70;;;;;;;21.39;100.00;96544.16;5087749;28;20055;-46
2022/07/15 01:35:39;;;;;;;4.47;3.75;;;;;;;21.29;100.00;96544.56;5081660;28;20079;-48
2022/07/15 01:38:09;;;;;;;5.10;3.90;;;;;;;21.35;100.00;96552.84;5085604;28;20514;-45
2022/07/15 01:40:38;;;;;;;6.13;3.53;;;;;;;21.28;100.00;96550.16;5083270;28;20540;-46
2022/07/15 01:43:06;;;;;;;9.88;3.70;;;;;;;21.18;100.00;96561.31;5088036;28;20471;-45
2022/07/15 01:45:35;;;;;;;10.25;3.95;;;;;;;21.05;100.00;96556.78;5075720;28;20079;-48
2022/07/15 01:48:03;;;;;;;7.00;3.70;;;;;;;20.93;100.00;96553.09;5076257;28;20064;-45
2022/07/15 01:50:31;;;;;;;5.43;3.20;;;;;;;20.88;100.00;96552.88;5080461;28;20084;-48
2022/07/15 01:52:59;;;;;;;8.07;2.85;;;;;;;20.95;100.00;96556.38;5081929;28;20068;-48
2022/07/15 01:55:30;;;;;;;6.15;2.90;;;;;;;20.93;100.00;96558.44;5082223;28;20477;-50
2022/07/15 01:57:58;;;;;;;9.10;3.08;;;;;;;20.83;100.00;96558.03;5084981;28;20075;-44
2022/07/15 02:00:26;;;;;;;9.68;3.05;;;;;;;20.87;100.00;96551.22;5079277;28;20114;-48
2022/07/15 02:02:55;;;;;;;4.40;2.50;;;;;;;20.86;100.00;96549.59;5087442;28;20074;-46
2022/07/15 02:05:24;;;;;;;6.35;2.78;;;;;;;20.75;100.00;96555.56;5076781;28;20444;-49
2022/07/15 02:07:52;;;;;;;7.35;2.60;;;;;;;20.86;100.00;96555.78;5080666;28;20762;-45
2022/07/15 02:10:20;;;;;;;4.47;1.92;;;;;;;20.66;100.00;96564.84;5083634;28;20127;-51
2022/07/15 02:12:50;;;;;;;6.45;2.53;;;;;;;20.77;100.00;96557.00;5087663;28;20485;-51
2022/07/15 02:15:19;;;;;;;5.97;2.30;;;;;;;20.75;100.00;96558.22;5084079;28;20048;-50
2022/07/15 02:17:47;;;;;;;5.85;2.13;;;;;;;20.87;100.00;96559.28;5084368;28;20139;-45
2022/07/15 02:20:16;;;;;;;4.40;2.40;;;;;;;20.87;100.00;96556.59;5078158;28;20110;-46
2022/07/15 02:22:44;;;;;;;5.00;2.03;;;;;;;20.66;100.00;96565.66;5077795;28;20482;-47
2022/07/15 02:25:13;;;;;;;3.67;1.85;;;;;;;20.58;100.00;96553.31;5080029;28;20063;-52
2022/07/15 02:27:41;;;;;;;5.97;2.15;;;;;;;20.42;100.00;96556.34;5076301;28;20087;-45
2022/07/15 02:30:12;;;;;;;6.00;2.20;;;;;;;20.58;100.00;96555.97;5074337;28;20086;-50
2022/07/15 02:32:40;;;;;;;;;;;;;;;20.62;100.00;96554.53;5082482;28;20716;-51
2022/07/15 02:35:09;;;;;;;5.88;2.35;;;;;;;20.63;100.00;96558.84;5076675;28;19958;-52
2022/07/15 02:37:37;;;;;;;7.47;2.03;;;;;;;20.59;100.00;96562.16;5081567;28;20083;-48
2022/07/15 02:40:06;;;;;;;4.65;2.08;;;;;;;20.57;100.00;96559.66;5074769;28;20083;-46
2022/07/15 02:42:35;;;;;;;6.30;2.22;;;;;;;20.73;100.00;96565.66;5075766;28;20083;-48
2022/07/15 02:45:05;;;;;;;4.85;1.67;;;;;;;20.66;100.00;96570.22;5080167;28;20096;-51
2022/07/15 02:47:35;;;;;;;6.55;2.40;;;;;;;20.42;100.00;96577.78;5082422;28;20502;-47
2022/07/15 02:50:05;;;;;;;4.60;2.10;;;;;;;20.46;100.00;96580.88;5080984;28;20079;-46
2022/07/15 02:52:33;;;;;;;4.30;2.03;;;;;;;20.36;100.00;96566.00;5078680;28;20094;-51
2022/07/15 02:55:02;;;;;;;5.15;2.25;;;;;;;20.44;100.00;96569.50;5084919;28;20074;-49
2022/07/15 02:57:30;;;;;;;6.45;1.95;;;;;;;20.22;100.00;96558.97;5088734;28;20068;-48
2022/07/15 02:59:59;;;;;;;4.43;2.30;;;;;;;20.04;100.00;96574.78;5078831;28;20436;-45
2022/07/15 03:02:27;;;;;;;5.78;2.40;;;;;;;20.39;100.00;96570.13;5077320;28;20087;-46
2022/07/15 03:04:57;;;;;;;6.40;2.25;;;;;;;20.36;100.00;96575.91;5077022;28;20056;-51
2022/07/15 03:07:26;;;;;;;6.93;2.55;;;;;;;20.19;100.00;96582.66;5081286;28;20590;-47
2022/07/15 03:09:54;;;;;;;9.48;2.47;;;;;;;20.29;100.00;96583.91;5080553;28;20076;-49
2022/07/15 03:12:23;;;;;;;5.15;1.98;;;;;;;20.34;100.00;96578.78;5081140;28;20070;-48
2022/07/15 03:14:51;;;;;;;6.70;2.47;;;;;;;20.22;100.00;96587.59;5078770;28;20079;-48
2022/07/15 03:17:19;;;;;;;4.07;2.20;;;;;;;20.06;100.00;96586.97;5084272;28;20074;-52
2022/07/15 03:19:48;;;;;;;9.38;2.38;;;;;;;20.04;100.00;96596.22;5075316;28;20513;-49
2022/07/15 03:22:18;;;;;;;4.28;2.20;;;;;;;20.06;100.00;96596.81;5080587;28;20137;-51
2022/07/15 03:24:46;;;;;;;9.63;2.22;;;;;;;20.05;100.00;96596.00;5079084;28;20511;-48
2022/07/15 03:27:15;;;;;;;7.85;2.65;;;;;;;20.21;100.00;96594.00;5081717;28;20328;-47
2022/07/15 03:29:44;;;;;;;4.70;2.38;;;;;;;20.18;100.00;96599.75;5080126;28;20121;-47
2022/07/15 03:32:15;;;;;;;4.28;2.28;;;;;;;20.00;100.00;96603.00;5071286;28;20071;-53
2022/07/15 03:34:44;;;;;;;3.80;2.28;;;;;;;20.03;100.00;96600.75;5078456;28;20064;-48
2022/07/15 03:37:12;;;;;;;6.50;2.45;;;;;;;20.02;100.00;96603.59;5081620;28;20075;-46
2022/07/15 03:39:42;;;;;;;7.25;2.33;;;;;;;20.07;100.00;96606.53;5080174;28;20213;-46
2022/07/15 03:42:11;;;;;;;5.55;2.13;;;;;;;20.07;100.00;96604.66;5075095;28;20079;-48
2022/07/15 03:44:40;;;;;;;4.78;2.30;;;;;;;20.08;100.00;96603.63;5077371;28;20090;-48
2022/07/15 03:47:08;;;;;;;5.63;2.22;;;;;;;20.26;100.00;96607.59;5081747;28;20506;-50
2022/07/15 03:49:37;;;;;;;5.25;2.38;;;;;;;20.22;100.00;96601.81;5076868;28;20083;-54
2022/07/15 03:52:05;;;;;;;5.18;2.38;;;;;;;20.29;100.00;96599.97;5076070;28;20076;-47
2022/07/15 03:54:34;;;;;;;6.35;2.47;;;;;;;20.31;100.00;96605.97;5073303;28;20075;-51
2022/07/15 03:57:04;;;;;;;8.10;2.28;;;;;;;20.37;100.00;96602.50;5074737;28;20075;-47
2022/07/15 03:59:32;;;;;;;6.47;2.50;;;;;;;20.27;100.00;96603.91;5077074;28;20072;-47
2022/07/15 04:02:01;;;;;;;6.20;2.70;;;;;;;20.28;100.00;96609.06;5084730;28;20059;-50
2022/07/15 04:04:30;;;;;;;6.88;2.50;;;;;;;20.13;100.00;96606.56;5087260;28;20075;-45
2022/07/15 04:06:58;;;;;;;9.57;2.50;;;;;;;20.16;100.00;96607.97;5088632;28;20103;-48
2022/07/15 04:09:27;;;;;;;5.85;2.35;;;;;;;20.26;100.00;96610.28;5086595;28;20091;-46
2022/07/15 04:11:55;;;;;;;11.10;2.33;;;;;;;20.23;100.00;96610.69;5088706;28;20082;-54
2022/07/15 04:14:25;;;;;;;6.68;2.20;;;;;;;20.10;100.00;96620.34;5091208;28;20105;-48
2022/07/15 04:16:53;;;;;;;4.28;2.38;;;;;;;20.03;100.00;96616.81;5092921;28;20075;-51
2022/07/15 04:19:22;;;;;;;7.72;2.50;;;;;;;20.22;100.00;96623.25;5092359;28;20485;-58
2022/07/15 04:21:51;;;;;;;7.10;2.50;;;;;;;20.27;100.00;96625.34;5091954;28;20071;-51
2022/07/15 04:24:19;;;;;;;9.13;2.55;;;;;;;20.34;100.00;96618.16;5091778;28;20090;-46
2022/07/15 04:26:51;;;;;;;5.85;2.30;;;;;;;20.45;100.00;96622.91;5092140;28;20084;-47
2022/07/15 04:29:19;;;;;;;5.22;2.47;;;;;;;20.54;100.00;96620.88;5092301;28;20078;-48
2022/07/15 04:31:49;;;;;;;5.78;2.78;;;;;;;20.67;100.00;96626.25;5092236;28;20079;-47
2022/07/15 04:34:18;;;;;;;5.97;2.40;;;;;;;20.97;100.00;96625.88;5092095;28;20071;-47
2022/07/15 04:36:46;;;;;;;7.03;3.15;;;;;;;21.73;100.00;96615.50;5092150;28;20088;-45
2022/07/15 04:39:14;;;;;;;5.80;2.55;;;;;;;22.73;100.00;96602.41;5091409;28;20071;-44
2022/07/15 04:41:43;;;;;;;5.28;2.55;;;;;;;22.72;100.00;96614.22;5091660;28;20080;-50
2022/07/15 04:44:11;;;;;;;7.32;2.58;;;;;;;22.21;100.00;96615.13;5091990;28;20091;-46
2022/07/15 04:46:40;;;;;;;6.32;2.28;;;;;;;22.17;100.00;96626.53;5092774;28;20090;-47
2022/07/15 04:51:55;;;;;;;3.55;2.20;;;;;;;22.78;100.00;96622.44;5086303;28;20084;-50
2022/07/15 04:54:24;;;;;;;5.25;2.47;;;;;;;23.89;100.00;96627.09;5091379;28;20548;-50
2022/07/15 04:56:52;;;;;;;3.92;2.33;;;;;;;23.46;100.00;96622.53;5091638;28;20521;-49
2022/07/15 04:59:20;;;;;;;6.97;2.20;;;;;;;23.35;100.00;96624.06;5091697;28;20087;-50
2022/07/15 05:01:49;;;;;;;4.97;2.60;;;;;;;23.66;100.00;96622.31;5092008;28;20087;-48
2022/07/15 05:04:19;;;;;;;4.53;2.20;;;;;;;23.55;100.00;96631.16;5089092;28;20470;-46
2022/07/15 05:06:47;;;;;;;4.35;2.28;;;;;;;23.78;100.00;96627.81;5086803;28;20094;-46
2022/07/15 05:09:16;;;;;;;5.68;2.28;;;;;;;24.17;100.00;96626.53;5091378;28;20076;-57
2022/07/15 05:11:44;;;;;;;6.18;2.13;;;;;;;24.21;86.71;96629.59;5091391;28;20079;-45
2022/07/15 05:14:12;;;;;;;6.38;2.40;;;;;;;23.28;100.00;96631.38;5091235;28;20084;-52
2022/07/15 05:16:41;;;;;;;4.60;2.10;;;;;;;23.24;100.00;96634.75;5091478;28;20521;-50
2022/07/15 05:19:09;;;;;;;6.88;2.20;;;;;;;23.54;100.00;96627.63;5091511;28;20091;-52
2022/07/15 05:21:39;;;;;;;4.53;1.90;;;;;;;23.66;100.00;96635.78;5090774;28;20526;-46
2022/07/15 05:24:07;;;;;;;4.68;2.33;;;;;;;23.58;100.00;96636.09;5091231;28;20083;-49
2022/07/15 05:26:57;;;;;;;4.25;2.30;;;;;;;23.53;100.00;96639.44;5091256;28;20099;-53
2022/07/15 05:29:25;;;;;;;5.30;2.13;;;;;;;23.14;100.00;96635.25;5091116;28;20059;-46
2022/07/15 05:31:54;;;;;;;5.72;2.20;;;;;;;22.81;100.00;96635.44;5091085;28;20098;-50
2022/07/15 05:34:22;;;;;;;6.70;2.58;;;;;;;22.88;100.00;96641.59;5087815;28;20090;-50
2022/07/15 05:36:52;;;;;;;7.68;2.28;;;;;;;23.05;100.00;96639.25;5090968;28;20461;-49
2022/07/15 05:39:20;;;;;;;6.43;2.05;;;;;;;23.08;100.00;96646.88;5091053;28;20525;-51
2022/07/15 05:41:49;;;;;;;8.02;2.40;;;;;;;22.84;100.00;96645.78;5092663;28;20534;-54
2022/07/15 05:44:17;;;;;;;5.60;2.25;;;;;;;23.86;100.00;96646.38;5095404;28;20076;-48
2022/07/15 05:46:45;;;;;;;5.15;2.13;;;;;;;23.58;94.74;96647.69;5091274;28;20080;-46
2022/07/15 05:49:14;;;;;;;6.65;2.40;;;;;;;23.56;90.97;96647.06;5088432;28;20071;-49
2022/07/15 05:51:42;;;;;;;5.75;2.70;;;;;;;23.88;86.25;96645.13;5090059;28;20666;-42
2022/07/15 05:54:14;;;;;;;4.30;2.20;;;;;;;23.80;86.17;96649.97;5090289;28;20072;-48
2022/07/15 05:56:44;;;;;;;5.53;2.22;;;;;;;24.17;78.38;96648.91;5090545;28;20103;-51
2022/07/15 05:59:12;;;;;;;2.78;1.88;;;;;;;24.42;77.59;96652.59;5090263;28;20076;-48
2022/07/15 06:01:40;;;;;;;6.60;2.40;;;;;;;24.24;75.12;96656.09;5090135;28;20708;-45
2022/07/15 06:04:09;;;;;;;4.60;2.15;;;;;;;24.35;76.47;96660.72;5087977;28;20079;-47
2022/07/15 06:06:37;;;;;;;3.78;1.73;;;;;;;24.33;77.21;96655.56;5090565;28;20091;-45
2022/07/15 06:09:06;;;;;;;5.50;1.92;;;;;;;24.06;78.92;96665.84;5090123;28;20083;-49
2022/07/15 06:11:35;;;;;;;3.63;1.85;;;;;;;24.13;81.97;96666.59;5090128;28;20170;-51
2022/07/15 06:14:05;;;;;;;7.38;2.13;;;;;;;24.18;84.95;96665.91;5090159;28;20071;-46
2022/07/15 06:16:33;;;;;;;5.70;2.07;;;;;;;23.69;85.30;96671.19;5089686;28;20082;-45
2022/07/15 06:19:02;;;;;;;7.03;2.00;;;;;;;23.64;92.50;96670.19;5090005;28;20516;-49
2022/07/15 06:21:30;;;;;;;7.78;2.13;;;;;;;23.59;91.54;96662.78;5089839;28;20550;-46
2022/07/15 06:23:59;;;;;;;4.82;1.67;;;;;;;23.18;86.94;96672.25;5090002;28;20181;-47
2022/07/15 06:26:27;;;;;;;6.40;1.90;;;;;;;23.19;88.89;96665.00;5090045;28;20098;-48
2022/07/15 06:28:57;;;;;;;3.90;1.95;;;;;;;23.00;95.73;96665.97;5089469;28;20474;-51
2022/07/15 06:31:26;;;;;;;4.53;1.63;;;;;;;22.84;85.63;96669.97;5083673;28;20088;-49
2022/07/15 06:33:54;;;;;;;5.47;1.73;;;;;;;23.14;85.90;96668.34;5090463;28;20087;-47
2022/07/15 06:36:23;;;;;;;5.00;1.88;;;;;;;23.26;89.74;96673.00;5089362;28;20083;-45
2022/07/15 06:38:51;;;;;;;6.78;1.83;;;;;;;23.50;84.71;96674.03;5093000;28;20079;-48
2022/07/15 06:41:19;;;;;;;6.57;1.50;;;;;;;23.48;75.89;96673.47;5096075;28;20087;-54
2022/07/15 06:43:48;;;;;;;6.07;2.10;;;;;;;23.37;86.43;96673.13;5089622;28;20071;-49
2022/07/15 06:46:18;;;;;;;5.35;1.85;;;;;;;23.69;84.86;96675.78;5090112;28;20076;-48
2022/07/15 06:48:46;;;;;;;4.80;1.90;;;;;;;23.52;82.21;96678.19;5089538;28;20486;-49
2022/07/15 06:51:14;;;;;;;4.88;1.67;;;;;;;23.91;81.20;96679.66;5089117;28;20099;-46
2022/07/15 06:53:43;;;;;;;5.22;1.70;;;;;;;23.95;67.86;96677.38;5089190;28;20411;-45
2022/07/15 06:56:12;;;;;;;6.35;1.60;;;;;;;22.95;70.81;96682.75;5089612;28;20565;-57
2022/07/15 06:58:41;;;;;;;5.68;1.83;;;;;;;23.01;73.21;96686.44;5085418;28;20087;-51
2022/07/15 07:01:09;;;;;;;4.70;1.60;;;;;;;23.53;68.27;96684.38;5089531;28;20609;-47
2022/07/15 07:03:39;;;;;;;4.35;1.45;;;;;;;23.71;68.65;96689.84;5089082;28;20087;-45
2022/07/15 07:06:26;;;;;;;6.97;1.75;;;;;;;23.68;67.05;96691.09;5089235;28;20086;-48
2022/07/15 07:08:55;;;;;;;3.88;1.30;;;;;;;23.68;69.93;96684.91;5089547;28;20083;-46
2022/07/15 07:11:23;;;;;;;5.72;1.42;;;;;;;23.89;60.35;96689.88;5082906;28;20075;-46
2022/07/15 07:13:51;;;;;;;7.28;1.50;;;;;;;24.15;62.41;96693.31;5082798;28;20086;-53
2022/07/15 07:16:20;;;;;;;3.78;1.50;;;;;;;24.43;64.33;96695.47;5089323;28;20185;-54
2022/07/15 07:18:50;;;;;;;4.63;1.60;;;;;;;24.30;65.02;96695.63;5089462;28;20091;-49
2022/07/15 07:21:20;;;;;;;7.40;1.70;;;;;;;24.54;58.39;96700.13;5089311;28;20095;-47
2022/07/15 07:23:57;;;;;;;6.90;1.73;;;;;;;24.44;58.53;96704.41;5089226;28;20510;-47
2022/07/15 07:26:26;;;;;;;4.53;1.70;;;;;;;24.23;62.24;96700.28;5088841;28;20076;-50
2022/07/15 07:28:55;;;;;;;4.78;1.60;;;;;;;24.80;55.88;96695.41;5089046;28;20080;-45
2022/07/15 07:31:26;;;;;;;6.57;1.50;;;;;;;24.60;53.81;96693.84;5088753;28;20078;-47
2022/07/15 07:33:57;;;;;;;5.97;1.73;;;;;;;25.06;52.04;96699.63;5088693;28;20072;-46
2022/07/15 07:36:26;;;;;;;7.18;1.52;;;;;;;25.23;54.89;96695.25;5100472;28;20084;-44
2022/07/15 07:38:55;;;;;;;3.40;1.45;;;;;;;25.07;50.56;96695.88;5089093;28;20083;-45
2022/07/15 07:41:24;;;;;;;4.55;1.30;;;;;;;24.74;51.56;96691.78;5087017;28;20570;-45
2022/07/15 07:43:52;;;;;;;6.55;1.50;;;;;;;24.79;58.79;96693.78;5088731;28;20103;-49
2022/07/15 07:46:20;;;;;;;4.50;1.70;;;;;;;24.48;53.54;96687.56;5088930;28;20559;-45
2022/07/15 07:48:49;;;;;;;5.13;1.40;;;;;;;25.02;52.21;96690.34;5090421;28;20574;-55
2022/07/15 07:51:30;;;;;;;4.47;1.42;;;;;;;25.13;51.50;96684.19;5092292;28;20087;-48
2022/07/15 07:53:58;;;;;;;7.85;1.63;;;;;;;25.15;53.71;96684.75;5092741;28;20071;-47
2022/07/15 07:56:27;;;;;;;4.18;1.20;;;;;;;24.84;52.77;96688.50;5092412;28;20494;-48
2022/07/15 07:58:55;;;;;;;6.05;1.40;;;;;;;25.18;51.90;96683.47;5093219;28;20083;-48
2022/07/15 08:01:24;;;;;;;5.30;1.95;;;;;;;25.47;49.15;96677.19;5092891;28;20094;-47
2022/07/15 08:03:52;;;;;;;8.02;1.75;;;;;;;25.53;48.49;96672.72;5092376;28;20111;-52
2022/07/15 08:06:22;;;;;;;4.38;1.55;;;;;;;25.56;48.33;96674.94;5092895;28;20122;-45
2022/07/15 08:08:52;;;;;;;4.50;1.30;;;;;;;25.16;50.36;96681.03;5092445;28;20544;-48
2022/07/15 08:11:20;;;;;;;3.83;1.20;;;;;;;25.14;49.08;96680.41;5092798;28;20686;-52
2022/07/15 08:13:49;;;;;;;5.03;1.27;;;;;;;25.63;48.97;96677.53;5086613;28;20078;-51
2022/07/15 08:16:17;;;;;;;4.70;1.20;;;;;;;26.00;47.33;96680.84;5092572;28;20470;-50
2022/07/15 08:18:46;;;;;;;4.93;1.50;;;;;;;25.20;46.49;96674.09;5092749;28;20075;-47
2022/07/15 08:21:14;;;;;;;3.88;1.50;;;;;;;25.40;45.89;96673.78;5092357;28;20526;-44
2022/07/15 08:23:43;;;;;;;6.32;1.30;;;;;;;25.22;48.07;96676.56;5086285;28;20444;-47
2022/07/15 08:26:18;;;;;;;5.70;1.30;;;;;;;25.50;46.45;96668.63;5092311;28;20071;-49
2022/07/15 08:28:47;;;;;;;3.05;1.35;;;;;;;25.32;47.40;96658.72;5092352;28;20071;-46
2022/07/15 08:31:33;;;;;;;6.50;1.55;;;;;;;25.59;46.49;96669.09;5095956;28;20088;-45
2022/07/15 08:34:02;;;;;;;4.75;1.45;;;;;;;25.60;44.37;96667.19;5095841;28;20092;-47
2022/07/15 08:36:31;;;;;;;5.78;1.70;;;;;;;25.55;45.58;96663.34;5089455;28;20084;-46
2022/07/15 08:38:59;;;;;;;7.47;1.67;;;;;;;25.65;44.06;96657.34;5090392;28;20080;-45
2022/07/15 08:41:29;;;;;;;4.32;1.50;;;;;;;25.55;47.64;96657.13;5089800;28;20079;-47
2022/07/15 08:43:57;;;;;;;9.55;1.73;;;;;;;25.02;44.67;96669.59;5091473;28;20084;-45
2022/07/15 08:46:26;;;;;;;5.55;1.60;;;;;;;25.43;43.23;96669.78;5090845;28;20090;-45
2022/07/15 08:49:00;;;;;;;3.72;1.40;;;;;;;25.78;42.77;96667.91;5090995;28;20459;-49
2022/07/15 08:51:29;;;;;;;5.95;1.70;;;;;;;25.95;44.61;96659.13;5090157;28;20110;-45
2022/07/15 08:53:57;;;;;;;7.35;1.45;;;;;;;25.90;43.10;96659.81;5090703;28;20087;-48
2022/07/15 08:56:25;;;;;;;6.35;2.03;;;;;;;26.38;42.41;96664.06;5089689;28;20535;-45
2022/07/15 08:58:57;;;;;;;5.30;1.80;;;;;;;26.35;42.02;96653.72;5084314;28;20094;-48
2022/07/15 09:01:28;;;;;;;3.65;1.40;;;;;;;26.27;42.10;96652.22;5089665;28;20079;-46
2022/07/15 09:03:57;;;;;;;4.82;1.58;;;;;;;25.96;44.75;96660.75;5084507;28;20079;-47
2022/07/15 09:06:36;;;;;;;5.35;1.30;;;;;;;26.11;43.78;96658.38;5087335;28;20087;-49
2022/07/15 09:09:24;;;;;;;4.78;1.30;;;;;;;26.36;42.15;96658.09;5090449;28;20095;-44
2022/07/15 09:11:58;;;;;;;4.57;1.75;;;;;;;25.93;41.47;96658.53;5089328;28;20515;-45
2022/07/15 09:14:42;;;;;;;5.80;1.33;;;;;;;26.31;41.46;96663.38;5084894;28;20102;-45
2022/07/15 09:17:23;;;;;;;7.15;1.60;;;;;;;26.30;41.49;96666.34;5090697;28;20067;-46
2022/07/15 09:20:09;;;;;;;2.95;1.48;;;;;;;25.67;44.41;96666.06;5087654;28;20676;-46
2022/07/15 09:22:52;;;;;;;5.35;1.50;;;;;;;26.04;43.83;96661.19;5090182;28;20079;-46
2022/07/15 09:25:21;;;;;;;4.50;1.33;;;;;;;26.13;43.38;96658.16;5085098;28;20084;-45
2022/07/15 09:27:51;;;;;;;4.68;1.70;;;;;;;26.05;43.03;96659.34;5094334;28;20079;-45
2022/07/15 09:36:09;;;;;;;5.78;1.77;;;;;;;26.67;41.10;96654.13;5089886;28;20751;-45
2022/07/15 09:38:46;;;;;;;8.05;2.08;;;;;;;26.62;42.10;96658.59;5089939;28;20087;-48
2022/07/15 09:41:26;;;;;;;7.50;2.05;;;;;;;26.84;41.21;96656.88;5044481;28;1303655;-45
2022/07/15 09:43:55;;;;;;;;;;;;;;;26.30;42.94;96658.22;5091772;28;20083;-44
2022/07/15 09:46:26;;;;;;;5.47;1.48;;;;;;;25.82;42.23;96662.91;5090626;28;19970;-49
2022/07/15 09:48:56;;;;;;;6.35;1.83;;;;;;;26.57;41.61;96658.53;5090806;28;20079;-46
2022/07/15 09:51:24;;;;;;;3.13;1.50;;;;;;;26.31;45.38;96654.47;5090395;28;20095;-48
2022/07/15 09:53:53;;;;;;;5.88;1.60;;;;;;;26.55;45.75;96647.94;5090833;28;20094;-45
2022/07/15 09:56:28;;;;;;;4.68;1.95;;;;;;;26.44;43.45;96648.78;5090172;28;20076;-50
2022/07/15 09:58:57;;;;;;;7.35;1.70;;;;;;;27.04;41.16;96647.44;5090643;28;20451;-47
2022/07/15 10:01:27;;;;;;;5.30;1.70;;;;;;;26.27;44.41;96643.31;5083807;28;20455;-51
2022/07/15 10:03:56;;;;;;;2.75;1.40;;;;;;;26.62;41.95;96639.66;5084855;28;20076;-44
2022/07/15 10:06:35;;;;;;;4.20;1.70;;;;;;;27.13;42.29;96633.31;5090262;28;20526;-50
2022/07/15 10:09:05;;;;;;;7.35;1.58;;;;;;;27.38;41.41;96638.31;5091335;28;20075;-49
2022/07/15 10:11:34;;;;;;;;;;;;;;;26.32;42.00;96645.28;5089898;28;20072;-52
2022/07/15 10:14:47;;;;;;;4.47;1.73;;;;;;;27.13;42.50;96637.91;5090782;28;19963;-45
2022/07/15 10:17:32;;;;;;;5.00;1.70;;;;;;;27.29;42.10;96636.25;5086863;28;20071;-52
2022/07/15 10:20:12;;;;;;;7.72;1.95;;;;;;;26.97;41.28;96640.31;5089346;28;20090;-47
2022/07/15 10:22:53;;;;;;;3.50;1.60;;;;;;;26.94;45.08;96642.69;5084933;28;20076;-47
2022/07/15 10:25:31;;;;;;;7.82;1.77;;;;;;;26.70;42.49;96642.81;5093049;28;20486;-50
2022/07/15 10:28:05;;;;;;;6.38;1.73;;;;;;;26.93;40.88;96644.56;5087269;28;20090;-48
2022/07/15 10:30:34;;;;;;;4.53;1.80;;;;;;;27.17;41.05;96628.22;5085477;28;20063;-51
2022/07/15 10:33:16;;;;;;;3.45;1.77;;;;;;;27.56;39.61;96634.50;5090059;28;20087;-51
2022/07/15 10:35:47;;;;;;;3.58;1.55;;;;;;;27.44;40.07;96636.50;5089994;28;20075;-46
2022/07/15 10:38:30;;;;;;;6.13;1.73;;;;;;;27.40;42.39;96635.38;5083740;28;20083;-46
2022/07/15 10:41:04;;;;;;;4.50;1.77;;;;;;;27.24;38.83;96633.47;5089428;28;20084;-54
2022/07/15 10:43:49;;;;;;;3.83;1.60;;;;;;;27.30;38.50;96632.50;5086140;28;20078;-44
2022/07/15 10:46:35;;;;;;;5.07;1.60;;;;;;;26.78;39.59;96627.25;5089826;28;20091;-50
2022/07/15 10:49:30;;;;;;;3.97;1.77;;;;;;;26.85;39.61;96623.31;5084642;28;20087;-45
2022/07/15 10:52:20;;;;;;;3.50;1.58;;;;;;;27.44;40.58;96626.47;5089809;28;20478;-51
2022/07/15 10:54:51;;;;;;;5.65;1.85;;;;;;;27.34;39.37;96629.03;5084022;28;20083;-47
2022/07/15 10:57:20;;;;;;;;;;;;;;;26.81;39.29;96621.38;5087075;28;20071;-48
2022/07/15 10:59:54;;;;;;;3.08;1.60;;;;;;;26.93;39.78;96625.63;5084806;28;19963;-45
2022/07/15 11:02:25;;;;;;;4.45;1.60;;;;;;;27.20;44.31;96631.25;5089520;28;20084;-48
2022/07/15 11:05:18;;;;;;;3.35;1.80;;;;;;;27.07;41.45;96633.44;5084309;28;20693;-47
2022/07/15 11:07:47;;;;;;;5.15;1.88;;;;;;;27.19;39.27;96624.19;5082851;28;20086;-52
2022/07/15 11:10:16;;;;;;;3.65;1.67;;;;;;;27.56;39.13;96618.25;5088623;28;20514;-49
2022/07/15 11:12:59;;;;;;;5.78;2.10;;;;;;;27.39;40.33;96614.75;5087420;28;20055;-46
2022/07/15 11:15:28;;;;;;;6.00;1.85;;;;;;;27.50;40.92;96613.84;5089497;28;20082;-47
2022/07/15 11:17:57;;;;;;;5.55;1.70;;;;;;;28.41;38.79;96608.03;5089643;28;20169;-54
2022/07/15 11:20:38;;;;;;;4.35;1.67;;;;;;;28.39;39.91;96604.75;5095365;28;20076;-48
2022/07/15 11:23:08;;;;;;;5.40;1.83;;;;;;;27.81;38.53;96601.56;5091085;28;20102;-51
2022/07/15 11:25:38;;;;;;;4.75;1.80;;;;;;;28.11;38.63;96594.88;5088578;28;20086;-47
2022/07/15 11:28:10;;;;;;;3.75;1.70;;;;;;;28.14;38.14;96595.19;5089076;28;20075;-46
2022/07/15 11:30:40;;;;;;;3.55;1.63;;;;;;;28.21;37.38;96591.47;5089175;28;20521;-48
2022/07/15 11:33:11;;;;;;;4.40;1.80;;;;;;;28.21;37.61;96589.59;5089035;28;20079;-48
2022/07/15 11:35:51;;;;;;;4.28;2.20;;;;;;;27.86;38.35;96582.66;5082778;28;20075;-48
2022/07/15 11:38:22;;;;;;;4.28;1.65;;;;;;;27.94;37.12;96584.09;5084374;28;20701;-45
2022/07/15 11:46:26;;;;;;;7.22;2.10;;;;;;;28.16;38.78;96570.56;5082997;28;20395;-47
2022/07/15 11:48:55;;;;;;;5.15;1.90;;;;;;;28.28;40.37;96573.94;5088471;28;20518;-48
2022/07/15 11:51:29;;;;;;;6.85;2.40;;;;;;;28.68;38.27;96580.06;5088964;28;20063;-47
2022/07/15 11:53:58;;;;;;;4.13;1.70;;;;;;;27.80;40.13;96577.41;5082882;28;20076;-47
2022/07/15 11:56:27;;;;;;;4.27;1.97;;;;;;;27.49;38.33;96579.69;5088570;28;20071;-48
2022/07/15 11:58:57;;;;;;;2.95;1.92;;;;;;;28.01;37.22;96575.78;5088631;28;20087;-47
2022/07/15 12:01:28;;;;;;;;;;;;;;;28.45;37.43;96570.34;5088943;28;20082;-50